createdAt,value
2018-07-02T00:00:34.858Z,98069.94
2018-07-02T00:03:04.269Z,98068.70
2018-07-02T00:05:50.444Z,98065.25
2018-07-02T00:08:19.886Z,98070.17
2018-07-02T00:10:49.349Z,98066.47
2018-07-02T00:13:18.856Z,98059.20
2018-07-02T00:15:48.414Z,98062.00
2018-07-02T00:18:17.890Z,98060.52
2018-07-02T00:20:47.442Z,98066.98
2018-07-02T00:23:16.936Z,98068.36
2018-07-02T00:25:46.360Z,98072.17
2018-07-02T00:28:15.744Z,98069.62
2018-07-02T00:30:45.262Z,98068.61
2018-07-02T00:33:14.671Z,98071.39
2018-07-02T00:35:44.229Z,98071.27
2018-07-02T00:38:13.784Z,98066.12
2018-07-02T00:40:43.248Z,98068.48
2018-07-02T00:43:13.695Z,98065.55
2018-07-02T00:45:43.260Z,98069.68
2018-07-02T00:48:12.721Z,98068.36
2018-07-02T00:50:42.210Z,98069.73
2018-07-02T00:53:11.812Z,98075.11
2018-07-02T00:55:41.309Z,98069.59
2018-07-02T00:58:10.753Z,98068.00
2018-07-02T01:00:40.260Z,98066.59
2018-07-02T01:03:09.790Z,98071.30
2018-07-02T01:05:39.219Z,98069.32
2018-07-02T01:08:08.896Z,98068.78
2018-07-02T01:10:38.332Z,98067.34
2018-07-02T01:13:07.986Z,98080.10
2018-07-02T01:15:37.423Z,98078.18
2018-07-02T01:18:06.913Z,98074.69
2018-07-02T01:20:36.354Z,98078.78
2018-07-02T01:23:05.830Z,98079.95
2018-07-02T01:25:35.336Z,98074.67
2018-07-02T01:28:04.514Z,98074.45
2018-07-02T01:30:34.028Z,98079.52
2018-07-02T01:33:03.524Z,98080.23
2018-07-02T01:35:32.993Z,98086.83
2018-07-02T01:38:02.400Z,98081.56
2018-07-02T01:40:31.853Z,98081.20
2018-07-02T01:43:01.292Z,98094.17
2018-07-02T01:45:30.739Z,98094.02
2018-07-02T01:48:00.197Z,98100.16
2018-07-02T01:50:30.239Z,98098.71
2018-07-02T01:52:59.774Z,98090.94
2018-07-02T01:55:29.326Z,98097.97
2018-07-02T01:57:58.866Z,98092.97
2018-07-02T02:00:28.261Z,98091.01
2018-07-02T02:02:57.689Z,98092.53
2018-07-02T02:05:27.222Z,98088.78
2018-07-02T02:07:56.681Z,98095.30
2018-07-02T02:10:26.163Z,98084.96
2018-07-02T02:12:55.311Z,98096.63
2018-07-02T02:15:24.741Z,98093.81
2018-07-02T02:17:54.359Z,98085.30
2018-07-02T02:20:23.499Z,98086.00
2018-07-02T02:22:52.974Z,98091.41
2018-07-02T02:25:22.356Z,98095.83
2018-07-02T02:27:51.762Z,98093.84
2018-07-02T02:30:21.838Z,98094.16
2018-07-02T02:32:51.232Z,98091.02
2018-07-02T02:35:20.664Z,98093.34
2018-07-02T02:37:50.130Z,98083.16
2018-07-02T02:40:19.573Z,98087.45
2018-07-02T02:42:49.080Z,98084.73
2018-07-02T02:45:18.564Z,98087.50
2018-07-02T02:47:48.024Z,98085.27
2018-07-02T02:50:17.984Z,98078.99
2018-07-02T02:52:47.454Z,98079.16
2018-07-02T02:55:17.066Z,98088.66
2018-07-02T02:57:46.484Z,98086.33
2018-07-02T03:00:16.188Z,98092.45
2018-07-02T03:02:45.799Z,98084.88
2018-07-02T03:05:14.969Z,98079.41
2018-07-02T03:07:44.462Z,98075.53
2018-07-02T03:10:13.936Z,98081.70
2018-07-02T03:12:44.906Z,98083.98
2018-07-02T03:15:14.381Z,98084.80
2018-07-02T03:17:43.804Z,98074.06
2018-07-02T03:20:13.244Z,98067.77
2018-07-02T03:22:42.628Z,98075.11
2018-07-02T03:25:12.035Z,98076.93
2018-07-02T03:27:41.610Z,98075.45
2018-07-02T03:30:11.091Z,98080.81
2018-07-02T03:32:40.524Z,98078.07
2018-07-02T03:35:09.943Z,98086.70
2018-07-02T03:37:39.373Z,98086.70
2018-07-02T03:40:08.907Z,98096.80
2018-07-02T03:42:38.371Z,98096.37
2018-07-02T03:45:07.828Z,98094.83
2018-07-02T03:47:37.234Z,98099.73
2018-07-02T03:50:06.862Z,98099.42
2018-07-02T03:52:36.311Z,98100.34
2018-07-02T03:55:05.822Z,98090.84
2018-07-02T03:57:35.461Z,98087.89
2018-07-02T04:00:04.995Z,98091.53
2018-07-02T04:02:34.427Z,98098.72
2018-07-02T04:05:03.924Z,98100.12
2018-07-02T04:07:33.321Z,98098.92
2018-07-02T04:10:02.824Z,98097.11
2018-07-02T04:12:32.282Z,98107.62
2018-07-02T04:15:01.753Z,98104.41
2018-07-02T04:17:31.175Z,98105.72
2018-07-02T04:20:00.634Z,98108.13
2018-07-02T04:22:30.075Z,98105.50
2018-07-02T04:24:59.514Z,98105.11
2018-07-02T04:27:28.628Z,98110.98
2018-07-02T04:29:58.089Z,98113.64
2018-07-02T04:32:27.558Z,98110.09
2018-07-02T04:34:57.057Z,98110.37
2018-07-02T04:37:26.495Z,98106.11
2018-07-02T04:39:56.024Z,98100.44
2018-07-02T04:42:25.578Z,98102.25
2018-07-02T04:44:55.027Z,98101.94
2018-07-02T04:47:24.455Z,98098.22
2018-07-02T04:49:53.563Z,98093.66
2018-07-02T04:52:23.010Z,98090.33
2018-07-02T04:54:52.381Z,98087.59
2018-07-02T04:57:21.800Z,98093.50
2018-07-02T04:59:51.281Z,98096.30
2018-07-02T05:02:20.715Z,98096.41
2018-07-02T05:04:50.181Z,98097.72
2018-07-02T05:07:19.341Z,98098.34
2018-07-02T05:09:48.774Z,98106.31
2018-07-02T05:12:18.173Z,98107.33
2018-07-02T05:14:47.610Z,98104.77
2018-07-02T05:17:17.021Z,98111.73
2018-07-02T05:19:46.418Z,98107.40
2018-07-02T05:22:15.917Z,98112.13
2018-07-02T05:24:45.224Z,98117.81
2018-07-02T05:27:15.005Z,98114.98
2018-07-02T05:29:44.404Z,98115.33
2018-07-02T05:32:13.850Z,98120.05
2018-07-02T05:34:43.332Z,98123.02
2018-07-02T05:37:12.775Z,98117.28
2018-07-02T05:39:42.174Z,98109.33
2018-07-02T05:42:11.626Z,98108.06
2018-07-02T05:44:41.044Z,98114.59
2018-07-02T05:47:10.550Z,98120.39
2018-07-02T05:49:40.064Z,98118.50
2018-07-02T05:52:09.456Z,98120.17
2018-07-02T05:54:38.932Z,98115.75
2018-07-02T05:57:08.387Z,98117.81
2018-07-02T05:59:37.828Z,98111.02
2018-07-02T06:02:07.280Z,98109.70
2018-07-02T06:04:36.767Z,98107.29
2018-07-02T06:07:06.234Z,98111.74
2018-07-02T06:09:35.680Z,98114.40
2018-07-02T06:12:05.197Z,98120.17
2018-07-02T06:14:34.677Z,98118.50
2018-07-02T06:17:04.120Z,98109.99
2018-07-02T06:19:33.557Z,98125.00
2018-07-02T06:22:02.956Z,98121.70
2018-07-02T06:24:32.358Z,98119.48
2018-07-02T06:27:01.908Z,98114.14
2018-07-02T06:29:31.365Z,98115.31
2018-07-02T06:32:00.533Z,98118.88
2018-07-02T06:34:30.593Z,98117.72
2018-07-02T06:37:00.120Z,98116.00
2018-07-02T06:39:29.504Z,98115.90
2018-07-02T06:41:59.221Z,98124.48
2018-07-02T06:44:28.886Z,98130.98
2018-07-02T06:46:58.308Z,98132.66
2018-07-02T06:49:27.806Z,98127.28
2018-07-02T06:51:57.218Z,98123.30
2018-07-02T06:54:26.719Z,98122.68
2018-07-02T06:56:56.153Z,98121.52
2018-07-02T06:59:25.298Z,98113.52
2018-07-02T07:01:54.771Z,98114.42
2018-07-02T07:04:24.204Z,98109.23
2018-07-02T07:06:53.652Z,98108.86
2018-07-02T07:09:22.773Z,98104.24
2018-07-02T07:11:52.191Z,98112.91
2018-07-02T07:14:22.184Z,98111.69
2018-07-02T07:16:51.655Z,98111.30
2018-07-02T07:19:21.104Z,98109.86
2018-07-02T07:21:50.585Z,98112.84
2018-07-02T07:24:19.969Z,98115.15
2018-07-02T07:26:49.364Z,98116.44
2018-07-02T07:29:18.821Z,98111.52
2018-07-02T07:31:48.225Z,98112.92
2018-07-02T07:34:17.644Z,98117.61
2018-07-02T07:36:47.116Z,98121.67
2018-07-02T07:39:16.286Z,98128.19
2018-07-02T07:41:45.730Z,98119.81
2018-07-02T07:44:15.169Z,98119.37
2018-07-02T07:46:44.551Z,98112.47
2018-07-02T07:49:13.987Z,98110.22
2018-07-02T07:51:43.421Z,98111.55
2018-07-02T07:54:12.858Z,98119.56
2018-07-02T07:56:42.281Z,98119.86
2018-07-02T07:59:11.721Z,98113.71
2018-07-02T08:01:41.172Z,98112.46
2018-07-02T08:04:10.617Z,98115.28
2018-07-02T08:06:40.556Z,98115.39
2018-07-02T08:09:11.556Z,98118.92
2018-07-02T08:11:41.288Z,98115.17
2018-07-02T08:14:10.649Z,98115.23
2018-07-02T08:16:39.772Z,98111.84
2018-07-02T08:19:09.319Z,98115.34
2018-07-02T08:21:38.721Z,98121.00
2018-07-02T08:24:08.228Z,98126.69
2018-07-02T08:26:37.668Z,98129.59
2018-07-02T08:29:07.215Z,98128.12
2018-07-02T08:31:36.650Z,98120.50
2018-07-02T08:34:06.503Z,98127.34
2018-07-02T08:36:35.879Z,98118.57
2018-07-02T08:39:10.123Z,98128.47
2018-07-02T08:41:39.551Z,98113.72
2018-07-02T08:44:09.024Z,98108.24
2018-07-02T08:46:38.202Z,98104.89
2018-07-02T08:49:07.625Z,98110.48
2018-07-02T08:51:36.801Z,98115.11
2018-07-02T08:54:06.499Z,98101.72
2018-07-02T08:56:35.940Z,98097.86
2018-07-02T08:59:05.378Z,98097.38
2018-07-02T09:01:35.546Z,98088.16
2018-07-02T09:04:05.090Z,98084.72
2018-07-02T09:06:34.627Z,98085.57
2018-07-02T09:09:06.321Z,98084.24
2018-07-02T09:11:35.755Z,98087.20
2018-07-02T09:14:05.316Z,98083.23
2018-07-02T09:16:34.781Z,98092.63
2018-07-02T09:19:04.263Z,98091.81
2018-07-02T09:21:33.693Z,98096.63
2018-07-02T09:24:03.090Z,98100.64
2018-07-02T09:26:32.572Z,98101.80
2018-07-02T09:29:01.942Z,98105.53
2018-07-02T09:31:31.460Z,98100.27
2018-07-02T09:34:00.889Z,98104.28
2018-07-02T09:36:30.049Z,98107.30
2018-07-02T09:38:59.489Z,98103.59
2018-07-02T09:41:29.421Z,98103.64
2018-07-02T09:43:58.596Z,98110.89
2018-07-02T09:46:28.048Z,98105.34
2018-07-02T09:48:57.482Z,98104.84
2018-07-02T09:51:26.967Z,98112.90
2018-07-02T09:53:56.427Z,98118.00
2018-07-02T09:56:25.862Z,98118.64
2018-07-02T09:58:55.361Z,98111.22
2018-07-02T10:01:24.812Z,98109.34
2018-07-02T10:03:54.249Z,98112.28
2018-07-02T10:06:24.142Z,98111.81
2018-07-02T10:08:53.754Z,98110.76
2018-07-02T10:11:23.242Z,98114.52
2018-07-02T10:13:53.350Z,98111.95
2018-07-02T10:16:22.761Z,98121.61
2018-07-02T10:18:52.258Z,98123.75
2018-07-02T10:21:21.720Z,98105.87
2018-07-02T10:23:51.173Z,98113.09
2018-07-02T10:26:20.673Z,98120.09
2018-07-02T10:28:50.126Z,98119.59
2018-07-02T10:31:19.560Z,98114.52
2018-07-02T10:33:48.934Z,98116.69
2018-07-02T10:36:18.424Z,98110.83
2018-07-02T10:38:47.840Z,98105.00
2018-07-02T10:41:17.310Z,98109.81
2018-07-02T10:43:46.793Z,98114.36
2018-07-02T10:46:16.220Z,98116.03
2018-07-02T10:48:45.706Z,98106.42
2018-07-02T10:51:15.116Z,98104.55
2018-07-02T10:53:44.544Z,98104.58
2018-07-02T10:56:14.029Z,98099.23
2018-07-02T10:58:43.449Z,98096.56
2018-07-02T11:01:12.896Z,98098.45
2018-07-02T11:03:42.070Z,98105.41
2018-07-02T11:06:11.593Z,98100.06
2018-07-02T11:08:41.188Z,98093.41
2018-07-02T11:11:10.605Z,98104.61
2018-07-02T11:13:40.144Z,98098.73
2018-07-02T11:16:09.601Z,98103.55
2018-07-02T11:18:43.790Z,98101.14
2018-07-02T11:21:13.617Z,98096.33
2018-07-02T11:23:43.332Z,98097.94
2018-07-02T11:26:12.740Z,98109.42
2018-07-02T11:28:42.366Z,98103.02
2018-07-02T11:31:11.839Z,98099.57
2018-07-02T11:33:41.349Z,98087.82
2018-07-02T11:36:10.822Z,98088.63
2018-07-02T11:38:40.231Z,98088.34
2018-07-02T11:41:09.639Z,98088.59
2018-07-02T11:43:39.075Z,98094.47
2018-07-02T11:46:08.535Z,98083.52
2018-07-02T11:48:38.038Z,98088.33
2018-07-02T11:51:07.488Z,98082.45
2018-07-02T11:53:36.908Z,98080.86
2018-07-02T11:56:06.418Z,98070.96
2018-07-02T11:58:35.841Z,98075.22
2018-07-02T12:01:05.274Z,98076.27
2018-07-02T12:03:34.695Z,98070.38
2018-07-02T12:06:04.199Z,98066.63
2018-07-02T12:08:33.635Z,98066.08
2018-07-02T12:11:03.152Z,98065.27
2018-07-02T12:13:32.647Z,98063.37
2018-07-02T12:16:02.104Z,98073.25
2018-07-02T12:18:31.577Z,98071.31
2018-07-02T12:21:01.079Z,98059.52
2018-07-02T12:23:30.501Z,98072.59
2018-07-02T12:25:59.963Z,98069.11
2018-07-02T12:28:29.393Z,98062.38
2018-07-02T12:30:58.839Z,98057.56
2018-07-02T12:33:28.318Z,98042.55
2018-07-02T12:35:57.757Z,98051.61
2018-07-02T12:38:27.168Z,98041.45
2018-07-02T12:40:56.648Z,98044.13
2018-07-02T12:43:25.765Z,98037.95
2018-07-02T12:45:55.166Z,98044.05
2018-07-02T12:48:24.631Z,98045.09
2018-07-02T12:50:54.017Z,98053.95
2018-07-02T12:53:23.511Z,98061.64
2018-07-02T12:55:53.000Z,98054.64
2018-07-02T12:58:22.435Z,98053.25
2018-07-02T13:00:51.987Z,98048.13
2018-07-02T13:03:21.145Z,98042.27
2018-07-02T13:05:50.602Z,98039.45
2018-07-02T13:08:20.336Z,98039.33
2018-07-02T13:10:49.852Z,98043.30
2018-07-02T13:13:19.305Z,98041.10
2018-07-02T13:15:48.760Z,98033.83
2018-07-02T13:18:18.243Z,98032.76
2018-07-02T13:20:47.708Z,98022.84
2018-07-02T13:23:17.181Z,98036.94
2018-07-02T13:25:46.721Z,98032.84
2018-07-02T13:28:16.146Z,98038.73
2018-07-02T13:30:45.353Z,98026.95
2018-07-02T13:33:14.798Z,98034.84
2018-07-02T13:35:44.387Z,98023.50
2018-07-02T13:38:13.876Z,98019.98
2018-07-02T13:40:43.547Z,98021.76
2018-07-02T13:43:13.518Z,98027.17
2018-07-02T13:45:42.956Z,98022.55
2018-07-02T13:48:12.445Z,98033.51
2018-07-02T13:50:41.944Z,98026.44
2018-07-02T13:53:11.362Z,98026.14
2018-07-02T13:55:40.839Z,98023.57
2018-07-02T13:58:12.031Z,98024.34
2018-07-02T14:00:41.600Z,98022.11
2018-07-02T14:03:11.051Z,98009.63
2018-07-02T14:05:40.499Z,98010.01
2018-07-02T14:08:09.948Z,98003.98
2018-07-02T14:10:39.128Z,98008.14
2018-07-02T14:13:09.119Z,98017.98
2018-07-02T14:15:38.760Z,98008.14
2018-07-02T14:18:08.169Z,98020.66
2018-07-02T14:20:37.600Z,98024.36
2018-07-02T14:23:08.375Z,98018.91
2018-07-02T14:25:37.805Z,98023.53
2018-07-02T14:28:07.220Z,98019.30
2018-07-02T14:30:36.666Z,98007.89
2018-07-02T14:33:06.454Z,98008.20
2018-07-02T14:35:35.883Z,98002.16
2018-07-02T14:38:05.431Z,98019.70
2018-07-02T14:40:35.480Z,98029.72
2018-07-02T14:43:05.028Z,98030.11
2018-07-02T14:45:34.388Z,98010.63
2018-07-02T14:48:03.633Z,98000.86
2018-07-02T14:50:32.819Z,98009.06
2018-07-02T14:53:02.555Z,98015.30
2018-07-02T14:55:32.024Z,98017.16
2018-07-02T14:58:01.413Z,98012.58
2018-07-02T15:00:30.848Z,98002.64
2018-07-02T15:03:00.391Z,97992.50
2018-07-02T15:05:29.870Z,98007.31
2018-07-02T15:07:59.358Z,98018.81
2018-07-02T15:10:28.850Z,98013.09
2018-07-02T15:12:58.428Z,98002.81
2018-07-02T15:15:27.971Z,98000.67
2018-07-02T15:17:57.327Z,98002.02
2018-07-02T15:20:26.779Z,98012.49
2018-07-02T15:22:56.321Z,98024.73
2018-07-02T15:25:25.777Z,98018.66
2018-07-02T15:27:55.161Z,98019.89
2018-07-02T15:30:24.628Z,98021.61
2018-07-02T15:32:54.286Z,98016.40
2018-07-02T15:35:23.774Z,98015.27
2018-07-02T15:37:53.289Z,98016.88
2018-07-02T15:40:22.823Z,98012.07
2018-07-02T15:42:52.294Z,98009.50
2018-07-02T15:45:21.726Z,98021.93
2018-07-02T15:47:51.178Z,98010.81
2018-07-02T15:50:20.339Z,98011.62
2018-07-02T15:52:49.786Z,98004.52
2018-07-02T15:55:18.982Z,98022.94
2018-07-02T15:57:48.436Z,98035.00
2018-07-02T16:00:17.932Z,98019.00
2018-07-02T16:02:47.380Z,98007.21
2018-07-02T16:05:16.811Z,98012.06
2018-07-02T16:07:46.314Z,98025.85
2018-07-02T16:10:15.746Z,98015.62
2018-07-02T16:12:45.761Z,98013.33
2018-07-02T16:15:15.193Z,98006.80
2018-07-02T16:17:44.691Z,98021.76
2018-07-02T16:20:14.129Z,98029.67
2018-07-02T16:22:43.574Z,98014.49
2018-07-02T16:25:13.226Z,97999.47
2018-07-02T16:27:42.766Z,98008.18
2018-07-02T16:30:12.022Z,98012.33
2018-07-02T16:32:41.671Z,98015.64
2018-07-02T16:35:11.105Z,98007.55
2018-07-02T16:37:40.588Z,98002.36
2018-07-02T16:40:09.778Z,98009.27
2018-07-02T16:42:39.237Z,98010.03
2018-07-02T16:45:08.733Z,98001.66
2018-07-02T16:47:38.496Z,97998.55
2018-07-02T16:50:08.700Z,98004.55
2018-07-02T16:52:38.256Z,98005.41
2018-07-02T16:55:07.463Z,98004.66
2018-07-02T16:57:36.943Z,97990.69
2018-07-02T17:00:07.184Z,97997.54
2018-07-02T17:02:36.710Z,98003.95
2018-07-02T17:05:06.848Z,98003.79
2018-07-02T17:07:36.616Z,97998.44
2018-07-02T17:10:05.771Z,97999.55
2018-07-02T17:12:35.228Z,97999.40
2018-07-02T17:15:05.145Z,98007.96
2018-07-02T17:17:34.741Z,97997.55
2018-07-02T17:20:04.756Z,97997.55
2018-07-02T17:22:34.286Z,97998.10
2018-07-02T17:25:03.762Z,98003.02
2018-07-02T17:27:33.257Z,98008.31
2018-07-02T17:30:02.792Z,98005.16
2018-07-02T17:32:32.317Z,97998.35
2018-07-02T17:35:01.797Z,97999.90
2018-07-02T17:37:31.346Z,98009.49
2018-07-02T17:40:00.810Z,98012.11
2018-07-02T17:42:29.996Z,98000.02
2018-07-02T17:44:59.442Z,97995.27
2018-07-02T17:47:28.906Z,97998.57
2018-07-02T17:49:58.380Z,98009.82
2018-07-02T17:52:27.822Z,98009.70
2018-07-02T17:54:57.469Z,98007.34
2018-07-02T17:57:26.945Z,98010.59
2018-07-02T17:59:56.451Z,98012.44
2018-07-02T18:02:25.922Z,98011.49
2018-07-02T18:04:55.379Z,98010.85
2018-07-02T18:07:24.610Z,98021.25
2018-07-02T18:09:54.138Z,98013.31
2018-07-02T18:12:23.623Z,98006.80
2018-07-02T18:14:53.043Z,98006.98
2018-07-02T18:17:22.807Z,98011.59
2018-07-02T18:19:51.999Z,98009.64
2018-07-02T18:22:21.422Z,98009.30
2018-07-02T18:24:50.996Z,98000.59
2018-07-02T18:27:20.430Z,98012.33
2018-07-02T18:29:50.748Z,98021.41
2018-07-02T18:32:20.256Z,98021.53
2018-07-02T18:34:49.971Z,98017.31
2018-07-02T18:37:19.418Z,98016.90
2018-07-02T18:39:48.871Z,98022.22
2018-07-02T18:42:18.300Z,98015.03
2018-07-02T18:44:47.792Z,98009.69
2018-07-02T18:47:17.853Z,98013.00
2018-07-02T18:49:47.343Z,98013.66
2018-07-02T18:52:16.777Z,98022.77
2018-07-02T18:54:46.339Z,98020.55
2018-07-02T18:57:15.532Z,98017.41
2018-07-02T18:59:45.020Z,98024.20
2018-07-02T19:02:14.601Z,98024.89
2018-07-02T19:04:44.203Z,98024.03
2018-07-02T19:07:13.701Z,98025.23
2018-07-02T19:09:43.122Z,98030.77
2018-07-02T19:12:12.585Z,98036.47
2018-07-02T19:14:42.089Z,98045.69
2018-07-02T19:17:11.604Z,98046.86
2018-07-02T19:19:41.050Z,98052.00
2018-07-02T19:22:10.531Z,98059.80
2018-07-02T19:24:41.063Z,98069.55
2018-07-02T19:27:10.519Z,98066.95
2018-07-02T19:29:40.141Z,98069.16
2018-07-02T19:32:09.556Z,98072.99
2018-07-02T19:34:38.988Z,98078.16
2018-07-02T19:37:08.497Z,98083.88
2018-07-02T19:39:37.968Z,98081.73
2018-07-02T19:42:07.685Z,98082.88
2018-07-02T19:44:37.093Z,98088.49
2018-07-02T19:47:06.799Z,98086.11
2018-07-02T19:49:36.259Z,98084.29
2018-07-02T19:52:05.862Z,98086.97
2018-07-02T19:54:35.310Z,98085.41
2018-07-02T19:57:04.779Z,98084.34
2018-07-02T19:59:34.159Z,98090.73
2018-07-02T20:02:03.644Z,98101.16
2018-07-02T20:04:33.057Z,98097.14
2018-07-02T20:07:02.658Z,98109.14
2018-07-02T20:09:32.020Z,98108.59
2018-07-02T20:12:01.466Z,98108.59
2018-07-02T20:14:30.980Z,98110.19
2018-07-02T20:17:00.475Z,98110.98
2018-07-02T20:19:29.944Z,98114.16
2018-07-02T20:21:59.390Z,98118.64
2018-07-02T20:24:28.845Z,98116.47
2018-07-02T20:26:58.349Z,98114.34
2018-07-02T20:29:27.769Z,98117.49
2018-07-02T20:31:57.286Z,98126.50
2018-07-02T20:34:26.742Z,98122.99
2018-07-02T20:36:56.168Z,98124.60
2018-07-02T20:39:25.666Z,98126.98
2018-07-02T20:41:55.121Z,98133.02
2018-07-02T20:44:24.531Z,98129.52
2018-07-02T20:46:53.976Z,98134.23
2018-07-02T20:49:23.403Z,98137.69
2018-07-02T20:51:52.847Z,98142.89
2018-07-02T20:54:22.296Z,98145.17
2018-07-02T20:56:51.721Z,98145.12
2018-07-02T20:59:21.282Z,98151.71
2018-07-02T21:01:50.722Z,98148.00
2018-07-02T21:04:20.167Z,98146.65
2018-07-02T21:06:49.564Z,98154.56
2018-07-02T21:09:19.045Z,98160.09
2018-07-02T21:11:48.497Z,98158.03
2018-07-02T21:14:17.969Z,98160.11
2018-07-02T21:16:47.400Z,98166.16
2018-07-02T21:19:16.783Z,98163.63
2018-07-02T21:21:46.240Z,98161.45
2018-07-02T21:24:15.683Z,98174.36
2018-07-02T21:26:45.135Z,98181.38
2018-07-02T21:29:14.597Z,98176.23
2018-07-02T21:31:44.077Z,98178.47
2018-07-02T21:34:13.583Z,98186.67
2018-07-02T21:36:42.954Z,98189.09
2018-07-02T21:39:13.556Z,98196.03
2018-07-02T21:41:43.601Z,98203.48
2018-07-02T21:44:13.090Z,98204.20
2018-07-02T21:46:42.502Z,98206.09
2018-07-02T21:49:11.929Z,98196.79
2018-07-02T21:51:41.453Z,98199.08
2018-07-02T21:54:10.911Z,98200.72
2018-07-02T21:56:40.367Z,98200.66
2018-07-02T21:59:09.905Z,98200.89
2018-07-02T22:01:39.388Z,98209.63
2018-07-02T22:04:08.857Z,98207.46
2018-07-02T22:06:38.337Z,98199.92
2018-07-02T22:09:09.640Z,98203.55
2018-07-02T22:11:39.093Z,98207.66
2018-07-02T22:14:08.545Z,98208.14
2018-07-02T22:16:38.010Z,98205.10
2018-07-02T22:19:07.587Z,98207.95
2018-07-02T22:21:37.119Z,98207.36
2018-07-02T22:24:06.581Z,98212.79
2018-07-02T22:26:37.211Z,98217.03
2018-07-02T22:29:06.863Z,98216.81
2018-07-02T22:31:36.260Z,98221.79
2018-07-02T22:34:05.785Z,98225.66
2018-07-02T22:36:35.190Z,98223.97
2018-07-02T22:39:06.963Z,98226.06
2018-07-02T22:41:36.572Z,98233.72
2018-07-02T22:44:06.749Z,98235.23
2018-07-02T22:46:36.170Z,98232.68
2018-07-02T22:49:05.790Z,98235.63
2018-07-02T22:51:35.291Z,98238.34
2018-07-02T22:54:04.876Z,98245.44
2018-07-02T22:56:34.311Z,98247.70
2018-07-02T22:59:03.758Z,98249.21
2018-07-02T23:01:33.189Z,98246.98
2018-07-02T23:04:02.594Z,98258.03
2018-07-02T23:06:31.996Z,98259.39
2018-07-02T23:09:01.414Z,98255.27
2018-07-02T23:11:30.876Z,98252.78
2018-07-02T23:14:00.339Z,98246.36
2018-07-02T23:16:29.721Z,98254.82
2018-07-02T23:18:59.145Z,98261.61
2018-07-02T23:21:28.529Z,98257.08
2018-07-02T23:23:57.928Z,98261.77
2018-07-02T23:26:27.400Z,98257.45
2018-07-02T23:28:56.765Z,98256.95
2018-07-02T23:31:26.188Z,98254.53
2018-07-02T23:33:55.625Z,98258.36
2018-07-02T23:36:25.075Z,98255.31
2018-07-02T23:38:54.510Z,98257.59
2018-07-02T23:41:23.920Z,98262.39
2018-07-02T23:43:53.344Z,98261.31
2018-07-02T23:46:22.720Z,98261.74
2018-07-02T23:48:52.160Z,98260.42
2018-07-02T23:51:21.611Z,98248.70
2018-07-02T23:53:51.041Z,98245.98
2018-07-02T23:56:20.482Z,98246.48
2018-07-02T23:58:49.931Z,98244.09
